sensor_id;sensor_type;location;lat;lon;timestamp;P1;durP1;ratioP1;P2;durP2;ratioP2
2944;SDS011;1482;51.398;7.128;2023-07-24T00:00:18;7.20;;;4.80;;
2944;SDS011;1482;51.398;7.128;2023-07-24T00:02:44;6.97;;;4.47;;
2944;SDS011;1482;51.398;7.128;2023-07-24T00:05:10;4.40;;;4.00;;
2944;SDS011;1482;51.398;7.128;2023-07-24T00:07:35;7.07;;;5.43;;
2944;SDS011;1482;51.398;7.128;2023-07-24T00:10:01;3.80;;;3.50;;
2944;SDS011;1482;51.398;7.128;2023-07-24T00:12:27;8.87;;;4.87;;
2944;SDS011;1482;51.398;7.128;2023-07-24T00:14:53;6.10;;;4.27;;
2944;SDS011;1482;51.398;7.128;2023-07-24T00:17:18;4.87;;;4.17;;
2944;SDS011;1482;51.398;7.128;2023-07-24T00:19:44;4.27;;;3.97;;
2944;SDS011;1482;51.398;7.128;2023-07-24T00:22:09;5.00;;;4.60;;
2944;SDS011;1482;51.398;7.128;2023-07-24T00:24:35;5.20;;;4.70;;
2944;SDS011;1482;51.398;7.128;2023-07-24T00:27:00;10.63;;;5.90;;
2944;SDS011;1482;51.398;7.128;2023-07-24T00:29:27;5.00;;;4.50;;
2944;SDS011;1482;51.398;7.128;2023-07-24T00:31:53;7.30;;;4.90;;
2944;SDS011;1482;51.398;7.128;2023-07-24T00:34:18;4.70;;;4.30;;
2944;SDS011;1482;51.398;7.128;2023-07-24T00:36:44;5.30;;;4.80;;
2944;SDS011;1482;51.398;7.128;2023-07-24T00:39:09;5.53;;;4.40;;
2944;SDS011;1482;51.398;7.128;2023-07-24T00:41:35;4.40;;;4.00;;
2944;SDS011;1482;51.398;7.128;2023-07-24T00:44:00;4.83;;;4.33;;
2944;SDS011;1482;51.398;7.128;2023-07-24T00:46:26;5.73;;;4.03;;
2944;SDS011;1482;51.398;7.128;2023-07-24T00:48:56;5.30;;;4.80;;
2944;SDS011;1482;51.398;7.128;2023-07-24T00:51:24;5.03;;;4.53;;
2944;SDS011;1482;51.398;7.128;2023-07-24T00:53:51;5.40;;;4.90;;
2944;SDS011;1482;51.398;7.128;2023-07-24T00:56:16;8.23;;;4.47;;
2944;SDS011;1482;51.398;7.128;2023-07-24T00:58:42;5.67;;;4.67;;
2944;SDS011;1482;51.398;7.128;2023-07-24T01:01:07;6.53;;;3.80;;
2944;SDS011;1482;51.398;7.128;2023-07-24T01:03:35;7.97;;;5.40;;
2944;SDS011;1482;51.398;7.128;2023-07-24T01:06:02;5.03;;;4.60;;
2944;SDS011;1482;51.398;7.128;2023-07-24T01:08:28;6.50;;;4.80;;
2944;SDS011;1482;51.398;7.128;2023-07-24T01:10:55;5.83;;;5.27;;
2944;SDS011;1482;51.398;7.128;2023-07-24T01:13:25;4.87;;;4.17;;
2944;SDS011;1482;51.398;7.128;2023-07-24T01:18:22;5.67;;;3.30;;
2944;SDS011;1482;51.398;7.128;2023-07-24T01:20:53;5.77;;;3.90;;
2944;SDS011;1482;51.398;7.128;2023-07-24T01:23:31;4.10;;;3.63;;
2944;SDS011;1482;51.398;7.128;2023-07-24T01:26:22;5.10;;;4.03;;
2944;SDS011;1482;51.398;7.128;2023-07-24T01:28:49;5.60;;;4.53;;
2944;SDS011;1482;51.398;7.128;2023-07-24T01:31:14;7.37;;;4.87;;
2944;SDS011;1482;51.398;7.128;2023-07-24T01:33:41;4.67;;;3.53;;
2944;SDS011;1482;51.398;7.128;2023-07-24T01:36:07;4.37;;;3.87;;
2944;SDS011;1482;51.398;7.128;2023-07-24T01:38:34;4.40;;;4.00;;
2944;SDS011;1482;51.398;7.128;2023-07-24T01:41:00;4.60;;;3.47;;
2944;SDS011;1482;51.398;7.128;2023-07-24T01:43:26;5.33;;;3.30;;
2944;SDS011;1482;51.398;7.128;2023-07-24T01:45:53;8.90;;;4.33;;
2944;SDS011;1482;51.398;7.128;2023-07-24T01:48:19;9.40;;;4.53;;
2944;SDS011;1482;51.398;7.128;2023-07-24T01:50:45;4.50;;;4.10;;
2944;SDS011;1482;51.398;7.128;2023-07-24T01:53:10;4.10;;;3.60;;
2944;SDS011;1482;51.398;7.128;2023-07-24T01:55:36;6.73;;;5.17;;
2944;SDS011;1482;51.398;7.128;2023-07-24T01:58:02;7.20;;;4.90;;
2944;SDS011;1482;51.398;7.128;2023-07-24T02:00:27;9.00;;;5.27;;
2944;SDS011;1482;51.398;7.128;2023-07-24T02:02:53;6.30;;;4.47;;
2944;SDS011;1482;51.398;7.128;2023-07-24T02:05:19;7.57;;;5.53;;
2944;SDS011;1482;51.398;7.128;2023-07-24T02:07:44;7.40;;;3.73;;
2944;SDS011;1482;51.398;7.128;2023-07-24T02:10:10;7.30;;;5.30;;
2944;SDS011;1482;51.398;7.128;2023-07-24T02:12:35;5.70;;;5.20;;
2944;SDS011;1482;51.398;7.128;2023-07-24T02:15:01;7.63;;;5.23;;
2944;SDS011;1482;51.398;7.128;2023-07-24T02:17:27;7.40;;;5.03;;
2944;SDS011;1482;51.398;7.128;2023-07-24T02:19:52;10.43;;;5.70;;
2944;SDS011;1482;51.398;7.128;2023-07-24T02:22:18;9.07;;;5.60;;
2944;SDS011;1482;51.398;7.128;2023-07-24T02:24:44;7.00;;;5.20;;
2944;SDS011;1482;51.398;7.128;2023-07-24T02:27:12;5.60;;;4.67;;
2944;SDS011;1482;51.398;7.128;2023-07-24T02:29:39;5.87;;;5.20;;
2944;SDS011;1482;51.398;7.128;2023-07-24T02:32:04;6.83;;;5.10;;
2944;SDS011;1482;51.398;7.128;2023-07-24T02:34:30;6.40;;;4.90;;
2944;SDS011;1482;51.398;7.128;2023-07-24T02:36:56;7.50;;;5.83;;
2944;SDS011;1482;51.398;7.128;2023-07-24T02:39:21;6.30;;;5.70;;
2944;SDS011;1482;51.398;7.128;2023-07-24T02:41:47;5.77;;;5.10;;
2944;SDS011;1482;51.398;7.128;2023-07-24T02:44:13;7.33;;;5.07;;
2944;SDS011;1482;51.398;7.128;2023-07-24T02:46:39;5.97;;;5.30;;
2944;SDS011;1482;51.398;7.128;2023-07-24T02:49:04;8.10;;;5.23;;
2944;SDS011;1482;51.398;7.128;2023-07-24T02:51:30;6.00;;;5.50;;
2944;SDS011;1482;51.398;7.128;2023-07-24T02:53:56;10.30;;;6.60;;
2944;SDS011;1482;51.398;7.128;2023-07-24T02:56:22;5.57;;;5.07;;
2944;SDS011;1482;51.398;7.128;2023-07-24T02:58:47;5.53;;;5.03;;
2944;SDS011;1482;51.398;7.128;2023-07-24T03:01:13;6.83;;;5.60;;
2944;SDS011;1482;51.398;7.128;2023-07-24T03:03:39;6.20;;;5.60;;
2944;SDS011;1482;51.398;7.128;2023-07-24T03:06:05;7.00;;;5.13;;
2944;SDS011;1482;51.398;7.128;2023-07-24T03:08:31;7.87;;;5.80;;
2944;SDS011;1482;51.398;7.128;2023-07-24T03:10:56;8.17;;;5.00;;
2944;SDS011;1482;51.398;7.128;2023-07-24T03:13:22;5.40;;;4.70;;
2944;SDS011;1482;51.398;7.128;2023-07-24T03:15:51;7.13;;;4.97;;
2944;SDS011;1482;51.398;7.128;2023-07-24T03:18:18;7.80;;;6.07;;
2944;SDS011;1482;51.398;7.128;2023-07-24T03:20:43;6.70;;;4.90;;
2944;SDS011;1482;51.398;7.128;2023-07-24T03:23:09;5.57;;;5.07;;
2944;SDS011;1482;51.398;7.128;2023-07-24T03:25:34;8.03;;;5.60;;
2944;SDS011;1482;51.398;7.128;2023-07-24T03:28:00;7.13;;;5.40;;
2944;SDS011;1482;51.398;7.128;2023-07-24T03:30:27;5.60;;;5.10;;
2944;SDS011;1482;51.398;7.128;2023-07-24T03:32:52;6.10;;;4.93;;
2944;SDS011;1482;51.398;7.128;2023-07-24T03:35:18;4.90;;;4.03;;
2944;SDS011;1482;51.398;7.128;2023-07-24T03:37:43;8.70;;;6.20;;
2944;SDS011;1482;51.398;7.128;2023-07-24T03:40:09;10.97;;;5.00;;
2944;SDS011;1482;51.398;7.128;2023-07-24T03:42:34;7.07;;;5.30;;
2944;SDS011;1482;51.398;7.128;2023-07-24T03:45:00;7.97;;;5.97;;
2944;SDS011;1482;51.398;7.128;2023-07-24T03:47:25;11.87;;;5.23;;
2944;SDS011;1482;51.398;7.128;2023-07-24T03:49:51;7.37;;;5.50;;
2944;SDS011;1482;51.398;7.128;2023-07-24T03:52:17;5.20;;;4.70;;
2944;SDS011;1482;51.398;7.128;2023-07-24T03:54:42;7.50;;;5.47;;
2944;SDS011;1482;51.398;7.128;2023-07-24T03:57:08;6.50;;;5.70;;
2944;SDS011;1482;51.398;7.128;2023-07-24T03:59:33;6.90;;;5.80;;
2944;SDS011;1482;51.398;7.128;2023-07-24T04:01:59;9.93;;;6.07;;
2944;SDS011;1482;51.398;7.128;2023-07-24T04:04:25;11.70;;;5.67;;
2944;SDS011;1482;51.398;7.128;2023-07-24T04:06:50;6.10;;;5.27;;
2944;SDS011;1482;51.398;7.128;2023-07-24T04:09:16;6.57;;;5.57;;
2944;SDS011;1482;51.398;7.128;2023-07-24T04:11:42;6.67;;;4.80;;
2944;SDS011;1482;51.398;7.128;2023-07-24T04:14:09;9.60;;;5.40;;
2944;SDS011;1482;51.398;7.128;2023-07-24T04:16:34;5.30;;;4.80;;
2944;SDS011;1482;51.398;7.128;2023-07-24T04:19:00;5.57;;;5.07;;
2944;SDS011;1482;51.398;7.128;2023-07-24T04:21:25;7.17;;;5.17;;
2944;SDS011;1482;51.398;7.128;2023-07-24T04:23:51;5.67;;;5.20;;
2944;SDS011;1482;51.398;7.128;2023-07-24T04:26:17;7.00;;;5.43;;
2944;SDS011;1482;51.398;7.128;2023-07-24T04:28:42;6.40;;;5.37;;
2944;SDS011;1482;51.398;7.128;2023-07-24T04:31:08;5.80;;;5.30;;
2944;SDS011;1482;51.398;7.128;2023-07-24T04:33:33;9.30;;;5.73;;
2944;SDS011;1482;51.398;7.128;2023-07-24T04:35:59;6.30;;;4.93;;
2944;SDS011;1482;51.398;7.128;2023-07-24T04:38:24;6.50;;;5.90;;
2944;SDS011;1482;51.398;7.128;2023-07-24T04:40:50;6.10;;;5.33;;
2944;SDS011;1482;51.398;7.128;2023-07-24T04:43:16;8.07;;;5.33;;
2944;SDS011;1482;51.398;7.128;2023-07-24T04:45:41;9.67;;;5.70;;
2944;SDS011;1482;51.398;7.128;2023-07-24T04:48:07;10.10;;;6.23;;
2944;SDS011;1482;51.398;7.128;2023-07-24T04:50:32;7.80;;;5.77;;
2944;SDS011;1482;51.398;7.128;2023-07-24T04:52:58;8.20;;;5.03;;
2944;SDS011;1482;51.398;7.128;2023-07-24T04:55:23;8.60;;;6.10;;
2944;SDS011;1482;51.398;7.128;2023-07-24T04:57:49;12.10;;;5.70;;
2944;SDS011;1482;51.398;7.128;2023-07-24T05:00:15;6.37;;;5.77;;
2944;SDS011;1482;51.398;7.128;2023-07-24T05:02:41;8.03;;;6.03;;
2944;SDS011;1482;51.398;7.128;2023-07-24T05:05:06;7.43;;;5.67;;
2944;SDS011;1482;51.398;7.128;2023-07-24T05:07:32;6.37;;;5.67;;
2944;SDS011;1482;51.398;7.128;2023-07-24T05:09:58;9.53;;;5.60;;
2944;SDS011;1482;51.398;7.128;2023-07-24T05:12:24;10.83;;;5.50;;
2944;SDS011;1482;51.398;7.128;2023-07-24T05:14:49;6.60;;;5.73;;
2944;SDS011;1482;51.398;7.128;2023-07-24T05:17:15;7.60;;;5.63;;
2944;SDS011;1482;51.398;7.128;2023-07-24T05:19:40;9.20;;;5.40;;
2944;SDS011;1482;51.398;7.128;2023-07-24T05:22:06;8.03;;;5.27;;
2944;SDS011;1482;51.398;7.128;2023-07-24T05:24:32;12.43;;;6.17;;
2944;SDS011;1482;51.398;7.128;2023-07-24T05:26:58;6.73;;;5.37;;
2944;SDS011;1482;51.398;7.128;2023-07-24T05:29:24;9.37;;;7.13;;
2944;SDS011;1482;51.398;7.128;2023-07-24T05:31:49;7.07;;;6.47;;
2944;SDS011;1482;51.398;7.128;2023-07-24T05:34:15;10.27;;;5.20;;
2944;SDS011;1482;51.398;7.128;2023-07-24T05:36:40;7.47;;;6.07;;
2944;SDS011;1482;51.398;7.128;2023-07-24T05:39:06;9.50;;;6.57;;
2944;SDS011;1482;51.398;7.128;2023-07-24T05:41:32;13.23;;;6.50;;
2944;SDS011;1482;51.398;7.128;2023-07-24T05:43:57;8.40;;;6.90;;
2944;SDS011;1482;51.398;7.128;2023-07-24T05:46:23;8.93;;;6.17;;
2944;SDS011;1482;51.398;7.128;2023-07-24T05:48:48;6.43;;;5.83;;
2944;SDS011;1482;51.398;7.128;2023-07-24T05:51:14;8.30;;;6.03;;
2944;SDS011;1482;51.398;7.128;2023-07-24T05:53:40;8.00;;;5.63;;
2944;SDS011;1482;51.398;7.128;2023-07-24T05:56:05;8.30;;;6.20;;
2944;SDS011;1482;51.398;7.128;2023-07-24T05:58:31;8.63;;;6.03;;
2944;SDS011;1482;51.398;7.128;2023-07-24T06:00:56;12.77;;;5.73;;
2944;SDS011;1482;51.398;7.128;2023-07-24T06:03:23;5.90;;;5.27;;
2944;SDS011;1482;51.398;7.128;2023-07-24T06:05:55;8.40;;;5.60;;
2944;SDS011;1482;51.398;7.128;2023-07-24T06:08:21;8.20;;;6.37;;
2944;SDS011;1482;51.398;7.128;2023-07-24T06:10:47;8.97;;;4.73;;
2944;SDS011;1482;51.398;7.128;2023-07-24T06:13:14;7.20;;;5.20;;
2944;SDS011;1482;51.398;7.128;2023-07-24T06:15:42;7.20;;;5.40;;
2944;SDS011;1482;51.398;7.128;2023-07-24T06:18:08;7.93;;;5.23;;
2944;SDS011;1482;51.398;7.128;2023-07-24T06:20:34;8.67;;;5.73;;
2944;SDS011;1482;51.398;7.128;2023-07-24T06:23:00;8.30;;;5.57;;
2944;SDS011;1482;51.398;7.128;2023-07-24T06:25:25;8.60;;;6.00;;
2944;SDS011;1482;51.398;7.128;2023-07-24T06:27:51;6.83;;;6.13;;
2944;SDS011;1482;51.398;7.128;2023-07-24T06:30:16;7.30;;;5.73;;
2944;SDS011;1482;51.398;7.128;2023-07-24T06:32:42;6.30;;;5.80;;
2944;SDS011;1482;51.398;7.128;2023-07-24T06:35:08;6.63;;;5.93;;
2944;SDS011;1482;51.398;7.128;2023-07-24T06:37:34;8.53;;;6.67;;
2944;SDS011;1482;51.398;7.128;2023-07-24T06:39:59;7.13;;;6.43;;
2944;SDS011;1482;51.398;7.128;2023-07-24T06:42:25;7.43;;;6.70;;
2944;SDS011;1482;51.398;7.128;2023-07-24T06:44:51;9.57;;;6.27;;
2944;SDS011;1482;51.398;7.128;2023-07-24T06:47:16;8.50;;;6.23;;
2944;SDS011;1482;51.398;7.128;2023-07-24T06:49:42;7.73;;;6.23;;
2944;SDS011;1482;51.398;7.128;2023-07-24T06:52:07;8.90;;;5.30;;
2944;SDS011;1482;51.398;7.128;2023-07-24T06:54:33;9.10;;;5.97;;
2944;SDS011;1482;51.398;7.128;2023-07-24T06:56:58;7.60;;;5.43;;
2944;SDS011;1482;51.398;7.128;2023-07-24T06:59:24;8.30;;;6.07;;
2944;SDS011;1482;51.398;7.128;2023-07-24T07:01:49;5.93;;;5.07;;
2944;SDS011;1482;51.398;7.128;2023-07-24T07:04:16;7.93;;;6.03;;
2944;SDS011;1482;51.398;7.128;2023-07-24T07:06:41;6.20;;;5.60;;
2944;SDS011;1482;51.398;7.128;2023-07-24T07:09:07;6.23;;;5.20;;
2944;SDS011;1482;51.398;7.128;2023-07-24T07:11:32;6.00;;;5.30;;
2944;SDS011;1482;51.398;7.128;2023-07-24T07:13:58;5.73;;;5.23;;
2944;SDS011;1482;51.398;7.128;2023-07-24T07:16:23;6.67;;;4.93;;
2944;SDS011;1482;51.398;7.128;2023-07-24T07:18:49;5.50;;;5.00;;
2944;SDS011;1482;51.398;7.128;2023-07-24T07:21:14;7.17;;;4.90;;
2944;SDS011;1482;51.398;7.128;2023-07-24T07:23:40;6.67;;;5.70;;
2944;SDS011;1482;51.398;7.128;2023-07-24T07:26:05;6.90;;;5.30;;
2944;SDS011;1482;51.398;7.128;2023-07-24T07:28:31;5.17;;;4.53;;
2944;SDS011;1482;51.398;7.128;2023-07-24T07:30:57;6.17;;;5.53;;
2944;SDS011;1482;51.398;7.128;2023-07-24T07:33:23;5.50;;;4.40;;
2944;SDS011;1482;51.398;7.128;2023-07-24T07:35:49;6.63;;;4.90;;
2944;SDS011;1482;51.398;7.128;2023-07-24T07:38:15;5.90;;;4.90;;
2944;SDS011;1482;51.398;7.128;2023-07-24T07:40:41;5.90;;;5.17;;
2944;SDS011;1482;51.398;7.128;2023-07-24T07:43:06;7.87;;;5.60;;
2944;SDS011;1482;51.398;7.128;2023-07-24T07:45:32;6.83;;;5.17;;
2944;SDS011;1482;51.398;7.128;2023-07-24T07:47:58;5.87;;;5.30;;
2944;SDS011;1482;51.398;7.128;2023-07-24T07:50:23;5.80;;;5.07;;
2944;SDS011;1482;51.398;7.128;2023-07-24T07:52:50;9.43;;;4.87;;
2944;SDS011;1482;51.398;7.128;2023-07-24T07:55:16;11.30;;;5.27;;
2944;SDS011;1482;51.398;7.128;2023-07-24T07:57:45;5.77;;;3.83;;
2944;SDS011;1482;51.398;7.128;2023-07-24T08:00:11;4.87;;;4.37;;
2944;SDS011;1482;51.398;7.128;2023-07-24T08:02:37;4.57;;;4.17;;
2944;SDS011;1482;51.398;7.128;2023-07-24T08:05:09;5.03;;;4.37;;
2944;SDS011;1482;51.398;7.128;2023-07-24T08:07:36;8.90;;;4.17;;
2944;SDS011;1482;51.398;7.128;2023-07-24T08:10:02;4.40;;;3.90;;
2944;SDS011;1482;51.398;7.128;2023-07-24T08:12:28;5.23;;;4.73;;
2944;SDS011;1482;51.398;7.128;2023-07-24T08:14:54;6.50;;;4.50;;
2944;SDS011;1482;51.398;7.128;2023-07-24T08:17:20;4.60;;;3.97;;
2944;SDS011;1482;51.398;7.128;2023-07-24T08:19:45;5.27;;;4.60;;
2944;SDS011;1482;51.398;7.128;2023-07-24T08:22:11;4.23;;;3.93;;
2944;SDS011;1482;51.398;7.128;2023-07-24T08:24:37;5.13;;;3.80;;
2944;SDS011;1482;51.398;7.128;2023-07-24T08:27:02;7.63;;;4.13;;
2944;SDS011;1482;51.398;7.128;2023-07-24T08:29:28;4.83;;;3.73;;
2944;SDS011;1482;51.398;7.128;2023-07-24T08:31:54;8.73;;;4.07;;
2944;SDS011;1482;51.398;7.128;2023-07-24T08:34:19;10.17;;;5.20;;
2944;SDS011;1482;51.398;7.128;2023-07-24T08:36:45;6.10;;;4.03;;
2944;SDS011;1482;51.398;7.128;2023-07-24T08:39:10;6.70;;;4.00;;
2944;SDS011;1482;51.398;7.128;2023-07-24T08:41:36;5.57;;;4.17;;
2944;SDS011;1482;51.398;7.128;2023-07-24T08:44:03;8.83;;;4.10;;
2944;SDS011;1482;51.398;7.128;2023-07-24T08:46:37;5.90;;;4.10;;
2944;SDS011;1482;51.398;7.128;2023-07-24T08:49:06;3.60;;;3.30;;
2944;SDS011;1482;51.398;7.128;2023-07-24T08:51:36;5.30;;;3.63;;
2944;SDS011;1482;51.398;7.128;2023-07-24T08:54:02;6.13;;;4.47;;
2944;SDS011;1482;51.398;7.128;2023-07-24T08:56:28;3.87;;;2.93;;
2944;SDS011;1482;51.398;7.128;2023-07-24T08:58:55;5.20;;;3.43;;
2944;SDS011;1482;51.398;7.128;2023-07-24T09:01:20;6.07;;;4.50;;
2944;SDS011;1482;51.398;7.128;2023-07-24T09:03:46;8.17;;;4.10;;
2944;SDS011;1482;51.398;7.128;2023-07-24T09:06:11;4.47;;;3.60;;
2944;SDS011;1482;51.398;7.128;2023-07-24T09:08:38;4.40;;;4.00;;
2944;SDS011;1482;51.398;7.128;2023-07-24T09:11:05;5.27;;;4.77;;
2944;SDS011;1482;51.398;7.128;2023-07-24T09:13:31;5.70;;;3.50;;
2944;SDS011;1482;51.398;7.128;2023-07-24T09:15:57;5.30;;;3.40;;
2944;SDS011;1482;51.398;7.128;2023-07-24T09:18:26;4.03;;;3.63;;
2944;SDS011;1482;51.398;7.128;2023-07-24T09:21:03;4.00;;;3.60;;
2944;SDS011;1482;51.398;7.128;2023-07-24T09:23:28;3.70;;;3.10;;
2944;SDS011;1482;51.398;7.128;2023-07-24T09:25:54;4.30;;;3.83;;
2944;SDS011;1482;51.398;7.128;2023-07-24T09:28:19;6.43;;;4.13;;
2944;SDS011;1482;51.398;7.128;2023-07-24T09:30:56;7.57;;;4.17;;
2944;SDS011;1482;51.398;7.128;2023-07-24T09:33:23;5.97;;;3.93;;
2944;SDS011;1482;51.398;7.128;2023-07-24T09:35:59;4.20;;;3.73;;
2944;SDS011;1482;51.398;7.128;2023-07-24T09:38:25;4.03;;;3.70;;
2944;SDS011;1482;51.398;7.128;2023-07-24T09:40:52;5.20;;;4.67;;
2944;SDS011;1482;51.398;7.128;2023-07-24T09:43:22;5.03;;;3.40;;
2944;SDS011;1482;51.398;7.128;2023-07-24T09:45:49;3.97;;;3.63;;
2944;SDS011;1482;51.398;7.128;2023-07-24T09:48:17;3.27;;;2.97;;
2944;SDS011;1482;51.398;7.128;2023-07-24T09:50:47;5.00;;;3.30;;
2944;SDS011;1482;51.398;7.128;2023-07-24T09:55:46;3.57;;;3.27;;
2944;SDS011;1482;51.398;7.128;2023-07-24T09:58:15;4.70;;;4.30;;
2944;SDS011;1482;51.398;7.128;2023-07-24T10:00:42;6.40;;;3.80;;
2944;SDS011;1482;51.398;7.128;2023-07-24T10:03:09;4.60;;;3.87;;
2944;SDS011;1482;51.398;7.128;2023-07-24T10:05:35;6.67;;;3.93;;
2944;SDS011;1482;51.398;7.128;2023-07-24T10:08:01;11.23;;;4.60;;
2944;SDS011;1482;51.398;7.128;2023-07-24T10:10:27;4.63;;;3.80;;
2944;SDS011;1482;51.398;7.128;2023-07-24T10:12:54;5.03;;;4.50;;
2944;SDS011;1482;51.398;7.128;2023-07-24T10:15:20;6.10;;;4.00;;
2944;SDS011;1482;51.398;7.128;2023-07-24T10:17:46;4.93;;;4.50;;
2944;SDS011;1482;51.398;7.128;2023-07-24T10:20:12;4.33;;;3.93;;
2944;SDS011;1482;51.398;7.128;2023-07-24T10:22:40;5.00;;;3.90;;
2944;SDS011;1482;51.398;7.128;2023-07-24T10:25:07;8.73;;;4.33;;
2944;SDS011;1482;51.398;7.128;2023-07-24T10:27:42;3.97;;;3.60;;
2944;SDS011;1482;51.398;7.128;2023-07-24T10:30:08;4.70;;;4.30;;
2944;SDS011;1482;51.398;7.128;2023-07-24T10:32:44;7.07;;;5.07;;
2944;SDS011;1482;51.398;7.128;2023-07-24T10:35:14;5.23;;;4.40;;
2944;SDS011;1482;51.398;7.128;2023-07-24T10:37:42;4.80;;;3.80;;
2944;SDS011;1482;51.398;7.128;2023-07-24T10:40:18;7.97;;;4.77;;
2944;SDS011;1482;51.398;7.128;2023-07-24T10:42:45;3.90;;;3.60;;
2944;SDS011;1482;51.398;7.128;2023-07-24T10:45:11;8.10;;;4.33;;
2944;SDS011;1482;51.398;7.128;2023-07-24T10:47:36;6.87;;;4.23;;
2944;SDS011;1482;51.398;7.128;2023-07-24T10:50:02;5.13;;;3.63;;
2944;SDS011;1482;51.398;7.128;2023-07-24T10:52:31;4.43;;;4.03;;
2944;SDS011;1482;51.398;7.128;2023-07-24T10:55:00;5.43;;;4.60;;
2944;SDS011;1482;51.398;7.128;2023-07-24T10:57:27;5.70;;;5.10;;
2944;SDS011;1482;51.398;7.128;2023-07-24T10:59:54;4.83;;;4.43;;
2944;SDS011;1482;51.398;7.128;2023-07-24T11:02:19;5.33;;;4.40;;
2944;SDS011;1482;51.398;7.128;2023-07-24T11:04:45;5.53;;;4.70;;
2944;SDS011;1482;51.398;7.128;2023-07-24T11:07:11;5.47;;;4.93;;
2944;SDS011;1482;51.398;7.128;2023-07-24T11:09:38;7.00;;;4.67;;
2944;SDS011;1482;51.398;7.128;2023-07-24T11:12:17;7.27;;;4.43;;
2944;SDS011;1482;51.398;7.128;2023-07-24T11:14:47;10.73;;;5.70;;
2944;SDS011;1482;51.398;7.128;2023-07-24T11:17:16;9.20;;;4.97;;
2944;SDS011;1482;51.398;7.128;2023-07-24T11:19:42;6.00;;;5.10;;
2944;SDS011;1482;51.398;7.128;2023-07-24T11:22:08;5.37;;;4.33;;
2944;SDS011;1482;51.398;7.128;2023-07-24T11:24:40;7.93;;;4.93;;
2944;SDS011;1482;51.398;7.128;2023-07-24T11:27:12;5.30;;;4.90;;
2944;SDS011;1482;51.398;7.128;2023-07-24T11:29:38;6.20;;;5.17;;
2944;SDS011;1482;51.398;7.128;2023-07-24T11:32:04;5.90;;;5.40;;
2944;SDS011;1482;51.398;7.128;2023-07-24T11:34:30;5.70;;;4.43;;
2944;SDS011;1482;51.398;7.128;2023-07-24T11:36:56;5.53;;;5.00;;
2944;SDS011;1482;51.398;7.128;2023-07-24T11:39:22;4.80;;;4.23;;
2944;SDS011;1482;51.398;7.128;2023-07-24T11:41:48;5.17;;;4.70;;
2944;SDS011;1482;51.398;7.128;2023-07-24T11:44:14;6.00;;;4.43;;
2944;SDS011;1482;51.398;7.128;2023-07-24T11:46:42;5.00;;;4.60;;
2944;SDS011;1482;51.398;7.128;2023-07-24T11:49:08;4.50;;;4.07;;
2944;SDS011;1482;51.398;7.128;2023-07-24T11:51:36;4.80;;;4.40;;
2944;SDS011;1482;51.398;7.128;2023-07-24T11:54:05;4.83;;;3.90;;
2944;SDS011;1482;51.398;7.128;2023-07-24T11:56:32;7.20;;;4.97;;
2944;SDS011;1482;51.398;7.128;2023-07-24T11:58:57;13.63;;;5.10;;
2944;SDS011;1482;51.398;7.128;2023-07-24T12:01:33;3.47;;;2.40;;
2944;SDS011;1482;51.398;7.128;2023-07-24T12:03:59;6.40;;;2.77;;
2944;SDS011;1482;51.398;7.128;2023-07-24T12:06:24;10.83;;;2.57;;
2944;SDS011;1482;51.398;7.128;2023-07-24T12:08:51;2.87;;;2.50;;
2944;SDS011;1482;51.398;7.128;2023-07-24T12:11:25;4.33;;;2.10;;
2944;SDS011;1482;51.398;7.128;2023-07-24T12:13:51;4.80;;;2.17;;
2944;SDS011;1482;51.398;7.128;2023-07-24T12:16:18;4.03;;;1.87;;
2944;SDS011;1482;51.398;7.128;2023-07-24T12:18:44;5.40;;;1.90;;
2944;SDS011;1482;51.398;7.128;2023-07-24T12:21:09;2.80;;;1.70;;
2944;SDS011;1482;51.398;7.128;2023-07-24T12:23:35;1.63;;;1.47;;
2944;SDS011;1482;51.398;7.128;2023-07-24T12:26:00;2.20;;;1.80;;
2944;SDS011;1482;51.398;7.128;2023-07-24T12:28:26;1.47;;;1.20;;
2944;SDS011;1482;51.398;7.128;2023-07-24T12:30:51;2.30;;;1.10;;
2944;SDS011;1482;51.398;7.128;2023-07-24T12:33:17;5.03;;;1.40;;
2944;SDS011;1482;51.398;7.128;2023-07-24T12:35:43;1.60;;;1.50;;
2944;SDS011;1482;51.398;7.128;2023-07-24T12:38:08;1.77;;;1.30;;
2944;SDS011;1482;51.398;7.128;2023-07-24T12:40:34;1.73;;;1.30;;
2944;SDS011;1482;51.398;7.128;2023-07-24T12:42:59;1.87;;;1.30;;
2944;SDS011;1482;51.398;7.128;2023-07-24T12:45:25;2.37;;;1.27;;
2944;SDS011;1482;51.398;7.128;2023-07-24T12:47:50;3.77;;;1.50;;
2944;SDS011;1482;51.398;7.128;2023-07-24T12:50:16;1.90;;;1.43;;
2944;SDS011;1482;51.398;7.128;2023-07-24T12:52:42;2.60;;;1.50;;
2944;SDS011;1482;51.398;7.128;2023-07-24T12:55:07;1.43;;;1.30;;
2944;SDS011;1482;51.398;7.128;2023-07-24T12:57:33;1.53;;;1.43;;
2944;SDS011;1482;51.398;7.128;2023-07-24T12:59:58;3.57;;;1.83;;
2944;SDS011;1482;51.398;7.128;2023-07-24T13:02:24;1.90;;;1.63;;
2944;SDS011;1482;51.398;7.128;2023-07-24T13:04:50;2.03;;;1.67;;
2944;SDS011;1482;51.398;7.128;2023-07-24T13:07:15;4.13;;;1.70;;
2944;SDS011;1482;51.398;7.128;2023-07-24T13:09:41;1.87;;;1.37;;
2944;SDS011;1482;51.398;7.128;2023-07-24T13:12:06;2.40;;;2.03;;
2944;SDS011;1482;51.398;7.128;2023-07-24T13:14:33;2.00;;;1.90;;
2944;SDS011;1482;51.398;7.128;2023-07-24T13:16:59;1.70;;;1.60;;
2944;SDS011;1482;51.398;7.128;2023-07-24T13:19:24;3.20;;;1.77;;
2944;SDS011;1482;51.398;7.128;2023-07-24T13:21:50;4.53;;;1.80;;
2944;SDS011;1482;51.398;7.128;2023-07-24T13:24:15;2.23;;;2.03;;
2944;SDS011;1482;51.398;7.128;2023-07-24T13:26:41;2.27;;;2.07;;
2944;SDS011;1482;51.398;7.128;2023-07-24T13:29:07;2.20;;;2.00;;
2944;SDS011;1482;51.398;7.128;2023-07-24T13:31:33;2.60;;;2.40;;
2944;SDS011;1482;51.398;7.128;2023-07-24T13:33:59;3.50;;;2.50;;
2944;SDS011;1482;51.398;7.128;2023-07-24T13:36:24;2.80;;;2.00;;
2944;SDS011;1482;51.398;7.128;2023-07-24T13:38:50;2.37;;;1.97;;
2944;SDS011;1482;51.398;7.128;2023-07-24T13:41:16;3.50;;;2.03;;
2944;SDS011;1482;51.398;7.128;2023-07-24T13:43:42;2.27;;;2.07;;
2944;SDS011;1482;51.398;7.128;2023-07-24T13:46:08;2.80;;;2.23;;
2944;SDS011;1482;51.398;7.128;2023-07-24T13:48:34;2.10;;;1.90;;
2944;SDS011;1482;51.398;7.128;2023-07-24T13:50:59;1.90;;;1.80;;
2944;SDS011;1482;51.398;7.128;2023-07-24T13:53:25;2.53;;;2.30;;
2944;SDS011;1482;51.398;7.128;2023-07-24T13:55:50;2.90;;;2.70;;
2944;SDS011;1482;51.398;7.128;2023-07-24T13:58:16;2.70;;;2.50;;
2944;SDS011;1482;51.398;7.128;2023-07-24T14:00:42;3.30;;;3.00;;
2944;SDS011;1482;51.398;7.128;2023-07-24T14:03:08;5.07;;;3.43;;
2944;SDS011;1482;51.398;7.128;2023-07-24T14:05:33;3.67;;;3.37;;
2944;SDS011;1482;51.398;7.128;2023-07-24T14:08:01;4.47;;;3.13;;
2944;SDS011;1482;51.398;7.128;2023-07-24T14:10:27;11.43;;;3.10;;
2944;SDS011;1482;51.398;7.128;2023-07-24T14:12:53;4.50;;;3.20;;
2944;SDS011;1482;51.398;7.128;2023-07-24T14:15:18;6.13;;;4.57;;
2944;SDS011;1482;51.398;7.128;2023-07-24T14:17:44;5.40;;;4.60;;
2944;SDS011;1482;51.398;7.128;2023-07-24T14:20:09;6.30;;;4.50;;
2944;SDS011;1482;51.398;7.128;2023-07-24T14:22:36;6.63;;;4.53;;
2944;SDS011;1482;51.398;7.128;2023-07-24T14:25:01;5.13;;;4.63;;
2944;SDS011;1482;51.398;7.128;2023-07-24T14:27:27;5.83;;;4.83;;
2944;SDS011;1482;51.398;7.128;2023-07-24T14:29:53;5.30;;;4.53;;
2944;SDS011;1482;51.398;7.128;2023-07-24T14:32:18;8.03;;;5.23;;
2944;SDS011;1482;51.398;7.128;2023-07-24T14:34:44;6.73;;;5.40;;
2944;SDS011;1482;51.398;7.128;2023-07-24T14:37:12;5.00;;;4.60;;
2944;SDS011;1482;51.398;7.128;2023-07-24T14:39:38;6.83;;;4.50;;
2944;SDS011;1482;51.398;7.128;2023-07-24T14:42:03;3.90;;;3.60;;
2944;SDS011;1482;51.398;7.128;2023-07-24T14:44:29;4.40;;;3.20;;
2944;SDS011;1482;51.398;7.128;2023-07-24T14:46:55;4.10;;;3.80;;
2944;SDS011;1482;51.398;7.128;2023-07-24T14:49:20;3.43;;;3.10;;
2944;SDS011;1482;51.398;7.128;2023-07-24T14:51:46;4.17;;;3.77;;
2944;SDS011;1482;51.398;7.128;2023-07-24T14:54:11;4.60;;;4.07;;
2944;SDS011;1482;51.398;7.128;2023-07-24T14:56:37;3.80;;;3.50;;
2944;SDS011;1482;51.398;7.128;2023-07-24T14:59:02;4.57;;;3.57;;
2944;SDS011;1482;51.398;7.128;2023-07-24T15:01:28;4.33;;;4.03;;
2944;SDS011;1482;51.398;7.128;2023-07-24T15:03:54;3.93;;;3.63;;
2944;SDS011;1482;51.398;7.128;2023-07-24T15:06:21;3.33;;;3.13;;
2944;SDS011;1482;51.398;7.128;2023-07-24T15:08:46;6.67;;;4.07;;
2944;SDS011;1482;51.398;7.128;2023-07-24T15:11:12;5.30;;;4.17;;
2944;SDS011;1482;51.398;7.128;2023-07-24T15:13:38;5.00;;;3.70;;